createdAt,value
2023-04-17T00:01:07.413Z,83.32
2023-04-17T00:03:14.024Z,83.43
2023-04-17T00:05:16.885Z,83.29
2023-04-17T00:07:22.828Z,83.35
2023-04-17T00:09:24.383Z,82.83
2023-04-17T00:11:26.374Z,82.86
2023-04-17T00:13:27.841Z,82.27
2023-04-17T00:15:29.467Z,82.52
2023-04-17T00:17:31.040Z,82.43
2023-04-17T00:19:32.600Z,82.40
2023-04-17T00:21:34.053Z,82.76
2023-04-17T00:23:35.593Z,82.99
2023-04-17T00:25:37.028Z,82.36
2023-04-17T00:27:38.629Z,82.86
2023-04-17T00:29:40.145Z,82.55
2023-04-17T00:31:41.687Z,82.84
2023-04-17T00:33:43.215Z,82.42
2023-04-17T00:35:44.736Z,82.81
2023-04-17T00:37:48.166Z,83.15
2023-04-17T00:39:49.699Z,82.78
2023-04-17T00:41:51.158Z,82.42
2023-04-17T00:43:52.635Z,82.53
2023-04-17T00:45:54.501Z,83.18
2023-04-17T00:47:58.751Z,82.42
2023-04-17T00:50:00.451Z,82.58
2023-04-17T00:52:02.714Z,81.99
2023-04-17T00:54:04.495Z,82.83
2023-04-17T00:56:06.797Z,82.66
2023-04-17T00:58:09.106Z,82.51
2023-04-17T01:00:11.415Z,82.08
2023-04-17T01:02:13.471Z,82.20
2023-04-17T01:04:15.155Z,82.90
2023-04-17T01:06:16.899Z,81.68
2023-04-17T01:08:19.330Z,82.54
2023-04-17T01:10:21.008Z,81.55
2023-04-17T01:12:24.443Z,82.29
2023-04-17T01:14:25.911Z,81.50
2023-04-17T01:16:30.358Z,82.70
2023-04-17T01:18:31.826Z,82.59
2023-04-17T01:20:34.173Z,81.66
2023-04-17T01:22:35.920Z,82.52
2023-04-17T01:24:37.777Z,82.52
2023-04-17T01:26:39.905Z,82.58
2023-04-17T01:28:41.420Z,82.15
2023-04-17T01:30:42.982Z,81.94
2023-04-17T01:32:44.532Z,82.86
2023-04-17T01:34:46.141Z,81.92
2023-04-17T01:36:47.818Z,82.60
2023-04-17T01:38:49.337Z,82.31
2023-04-17T01:40:51.403Z,82.54
2023-04-17T01:42:52.953Z,82.43
2023-04-17T01:44:54.468Z,82.21
2023-04-17T01:46:56.583Z,82.27
2023-04-17T01:48:58.076Z,82.09
2023-04-17T01:50:59.830Z,82.67
2023-04-17T01:53:01.328Z,82.40
2023-04-17T01:55:04.200Z,82.66
2023-04-17T01:57:05.699Z,82.55
2023-04-17T01:59:07.184Z,82.35
2023-04-17T02:01:08.667Z,82.75
2023-04-17T02:03:10.248Z,82.59
2023-04-17T02:05:11.840Z,82.43
2023-04-17T02:07:13.333Z,82.01
2023-04-17T02:09:14.785Z,82.39
2023-04-17T02:11:16.330Z,82.75
2023-04-17T02:13:17.846Z,82.33
2023-04-17T02:15:19.413Z,82.04
2023-04-17T02:17:20.990Z,82.69
2023-04-17T02:19:22.814Z,82.42
2023-04-17T02:21:24.386Z,82.80
2023-04-17T02:23:26.222Z,83.06
2023-04-17T02:25:28.452Z,82.12
2023-04-17T02:27:30.026Z,82.48
2023-04-17T02:29:31.626Z,82.32
2023-04-17T02:31:33.428Z,83.12
2023-04-17T02:33:36.821Z,82.69
2023-04-17T02:35:38.368Z,83.07
2023-04-17T02:37:40.103Z,82.67
2023-04-17T02:39:41.636Z,82.22
2023-04-17T02:41:43.113Z,82.89
2023-04-17T02:43:44.662Z,83.24
2023-04-17T02:45:46.152Z,82.54
2023-04-17T02:47:48.231Z,82.11
2023-04-17T02:49:49.786Z,82.89
2023-04-17T02:51:51.561Z,82.81
2023-04-17T02:53:53.253Z,82.99
2023-04-17T02:55:55.901Z,82.94
2023-04-17T02:57:57.412Z,82.94
2023-04-17T02:59:58.961Z,82.82
2023-04-17T03:02:00.562Z,83.47
2023-04-17T03:04:02.372Z,83.48
2023-04-17T03:06:04.240Z,83.69
2023-04-17T03:08:06.518Z,83.57
2023-04-17T03:10:09.395Z,83.53
2023-04-17T03:12:10.938Z,83.88
2023-04-17T03:14:12.420Z,84.28
2023-04-17T03:16:14.088Z,83.75
2023-04-17T03:18:15.811Z,84.31
2023-04-17T03:20:17.904Z,83.55
2023-04-17T03:22:19.442Z,83.61
2023-04-17T03:24:21.150Z,84.09
2023-04-17T03:26:22.703Z,84.75
2023-04-17T03:28:24.349Z,84.30
2023-04-17T03:30:25.822Z,83.95
2023-04-17T03:32:27.307Z,84.32
2023-04-17T03:34:29.126Z,83.74
2023-04-17T03:36:30.955Z,83.82
2023-04-17T03:38:33.189Z,83.76
2023-04-17T03:40:35.390Z,83.49
2023-04-17T03:42:36.873Z,84.02
2023-04-17T03:44:38.329Z,83.85
2023-04-17T03:46:39.911Z,83.75
2023-04-17T03:48:41.352Z,83.97
2023-04-17T03:50:42.916Z,84.19
2023-04-17T03:52:44.583Z,83.85
2023-04-17T03:54:48.892Z,83.60
2023-04-17T03:56:50.401Z,83.29
2023-04-17T03:58:51.920Z,83.73
2023-04-17T04:00:55.592Z,83.71
2023-04-17T04:02:57.223Z,83.51
2023-04-17T04:04:58.917Z,83.32
2023-04-17T04:07:01.547Z,83.79
2023-04-17T04:09:03.583Z,83.36
2023-04-17T04:11:05.164Z,83.37
2023-04-17T04:13:06.613Z,83.27
2023-04-17T04:15:08.718Z,83.08
2023-04-17T04:17:10.207Z,83.75
2023-04-17T04:19:11.940Z,83.60
2023-04-17T04:21:13.733Z,83.40
2023-04-17T04:23:16.805Z,83.47
2023-04-17T04:25:18.469Z,84.22
2023-04-17T04:27:22.693Z,84.48
2023-04-17T04:29:25.627Z,84.68
2023-04-17T04:31:29.701Z,85.89
2023-04-17T04:33:31.350Z,86.43
2023-04-17T04:35:32.854Z,86.53
2023-04-17T04:37:34.336Z,86.73
2023-04-17T04:39:38.034Z,86.71
2023-04-17T04:41:45.817Z,86.21
2023-04-17T04:43:47.291Z,86.35
2023-04-17T04:45:48.788Z,86.15
2023-04-17T04:47:50.331Z,85.96
2023-04-17T04:49:52.087Z,85.63
2023-04-17T04:51:53.606Z,85.55
2023-04-17T04:53:55.737Z,85.63
2023-04-17T04:55:57.267Z,85.84
2023-04-17T04:57:58.794Z,85.36
2023-04-17T05:00:00.334Z,85.47
2023-04-17T05:02:01.970Z,85.74
2023-04-17T05:04:03.840Z,85.67
2023-04-17T05:06:06.027Z,85.27
2023-04-17T05:08:07.473Z,85.03
2023-04-17T05:10:09.399Z,85.09
2023-04-17T05:12:10.954Z,85.23
2023-04-17T05:14:12.422Z,84.95
2023-04-17T05:16:13.950Z,85.32
2023-04-17T05:18:15.530Z,85.54
2023-04-17T05:20:17.096Z,85.54
2023-04-17T05:22:18.601Z,86.16
2023-04-17T05:24:20.429Z,86.31
2023-04-17T05:26:22.247Z,86.39
2023-04-17T05:28:23.892Z,86.52
2023-04-17T05:30:25.394Z,87.19
2023-04-17T05:32:26.907Z,87.43
2023-04-17T05:34:28.397Z,87.32
2023-04-17T05:36:31.581Z,87.19
2023-04-17T05:38:33.132Z,87.26
2023-04-17T05:40:34.819Z,86.71
2023-04-17T05:42:36.560Z,87.75
2023-04-17T05:44:38.034Z,87.71
2023-04-17T05:46:39.612Z,88.30
2023-04-17T05:48:41.179Z,88.39
2023-04-17T05:50:42.657Z,88.45
2023-04-17T05:52:44.244Z,88.76
2023-04-17T05:54:45.850Z,88.78
2023-04-17T05:56:47.517Z,86.86
2023-04-17T05:58:48.960Z,86.58
2023-04-17T06:00:50.835Z,86.34
2023-04-17T06:02:52.473Z,87.07
2023-04-17T06:04:54.162Z,87.08
2023-04-17T06:06:55.852Z,88.13
2023-04-17T06:08:57.570Z,89.33
2023-04-17T06:10:59.042Z,88.69
2023-04-17T06:13:00.702Z,89.90
2023-04-17T06:15:02.302Z,89.32
2023-04-17T06:17:03.885Z,89.41
2023-04-17T06:19:05.525Z,90.48
2023-04-17T06:21:07.836Z,89.95
2023-04-17T06:23:09.301Z,90.25
2023-04-17T06:25:10.772Z,89.00
2023-04-17T06:27:12.281Z,87.48
2023-04-17T06:29:15.493Z,87.13
2023-04-17T06:31:17.106Z,86.03
2023-04-17T06:33:18.598Z,84.54
2023-04-17T06:35:20.440Z,83.44
2023-04-17T06:37:21.901Z,81.51
2023-04-17T06:39:23.327Z,80.18
2023-04-17T06:41:24.764Z,79.36
2023-04-17T06:43:26.258Z,78.70
2023-04-17T06:45:27.697Z,79.23
2023-04-17T06:47:29.304Z,78.40
2023-04-17T06:49:33.930Z,78.36
2023-04-17T06:51:35.394Z,78.25
2023-04-17T06:53:36.915Z,78.33
2023-04-17T06:55:38.394Z,77.86
2023-04-17T06:57:39.873Z,77.33
2023-04-17T06:59:41.356Z,77.20
2023-04-17T07:01:42.830Z,76.98
2023-04-17T07:03:44.618Z,77.26
2023-04-17T07:05:46.526Z,76.88
2023-04-17T07:07:48.193Z,76.74
2023-04-17T07:09:49.756Z,76.10
2023-04-17T07:11:51.465Z,76.27
2023-04-17T07:13:52.944Z,76.14
2023-04-17T07:15:55.576Z,76.22
2023-04-17T07:17:57.203Z,76.27
2023-04-17T07:19:58.732Z,76.25
2023-04-17T07:22:00.321Z,75.88
2023-04-17T07:24:01.789Z,75.39
2023-04-17T07:26:03.325Z,76.42
2023-04-17T07:28:05.385Z,76.20
2023-04-17T07:30:08.209Z,75.27
2023-04-17T07:32:09.712Z,75.68
2023-04-17T07:34:11.408Z,75.26
2023-04-17T07:36:13.036Z,74.96
2023-04-17T07:38:14.519Z,75.29
2023-04-17T07:40:16.921Z,74.67
2023-04-17T07:42:18.389Z,74.39
2023-04-17T07:44:19.936Z,74.73
2023-04-17T07:46:21.445Z,75.31
2023-04-17T07:48:23.378Z,74.68
2023-04-17T07:50:25.122Z,74.22
2023-04-17T07:52:26.710Z,74.07
2023-04-17T07:54:28.202Z,73.66
2023-04-17T07:56:31.830Z,74.46
2023-04-17T07:58:35.740Z,74.39
2023-04-17T08:00:41.991Z,74.31
2023-04-17T08:02:43.838Z,74.00
2023-04-17T08:04:46.516Z,73.74
2023-04-17T08:06:48.267Z,73.75
2023-04-17T08:08:49.984Z,73.54
2023-04-17T08:10:51.522Z,73.12
2023-04-17T08:12:52.969Z,73.11
2023-04-17T08:14:54.439Z,72.83
2023-04-17T08:16:55.931Z,73.00
2023-04-17T08:18:57.421Z,73.40
2023-04-17T08:20:59.063Z,73.64
2023-04-17T08:23:00.619Z,73.40
2023-04-17T08:25:03.121Z,73.72
2023-04-17T08:27:05.194Z,73.28
2023-04-17T08:29:07.385Z,73.79
2023-04-17T08:31:10.418Z,74.16
2023-04-17T08:33:13.535Z,74.04
2023-04-17T08:35:15.792Z,74.27
2023-04-17T08:37:17.241Z,74.16
2023-04-17T08:39:19.439Z,73.80
2023-04-17T08:41:25.551Z,73.03
2023-04-17T08:43:29.488Z,74.04
2023-04-17T08:45:35.454Z,73.58
2023-04-17T08:47:39.651Z,73.70
2023-04-17T08:49:44.100Z,73.71
2023-04-17T08:51:46.972Z,73.48
2023-04-17T08:53:48.432Z,73.88
2023-04-17T08:55:50.018Z,72.57
2023-04-17T08:57:55.368Z,72.74
2023-04-17T08:59:56.857Z,72.99
2023-04-17T09:02:06.777Z,73.10
2023-04-17T09:04:08.942Z,72.76
2023-04-17T09:06:11.492Z,72.60
2023-04-17T09:08:20.469Z,72.91
2023-04-17T09:10:38.128Z,70.44
2023-04-17T09:12:41.956Z,69.50
2023-04-17T09:14:43.653Z,70.87
2023-04-17T09:16:54.942Z,71.52
2023-04-17T09:19:09.711Z,72.36
2023-04-17T09:21:11.946Z,69.07
2023-04-17T09:23:13.413Z,71.46
2023-04-17T09:25:19.243Z,72.55
2023-04-17T09:27:23.876Z,72.08
2023-04-17T09:29:25.567Z,72.73
2023-04-17T09:31:30.436Z,72.06
2023-04-17T09:33:32.095Z,71.82
2023-04-17T09:35:34.480Z,71.33
2023-04-17T09:37:50.492Z,71.65
2023-04-17T09:40:00.037Z,71.84
2023-04-17T09:42:03.983Z,71.78
2023-04-17T09:44:06.273Z,71.40
2023-04-17T09:46:07.921Z,70.87
2023-04-17T09:48:11.612Z,70.83
2023-04-17T09:50:16.966Z,70.91
2023-04-17T09:52:20.774Z,64.47
2023-04-17T09:54:23.344Z,68.17
2023-04-17T09:56:26.510Z,70.02
2023-04-17T09:58:27.945Z,70.05
2023-04-17T10:00:29.819Z,68.87
2023-04-17T10:02:32.740Z,69.79
2023-04-17T10:04:35.326Z,70.28
2023-04-17T10:06:37.031Z,70.03
2023-04-17T10:08:39.092Z,69.87
2023-04-17T10:10:40.732Z,69.87
2023-04-17T10:12:43.315Z,70.35
2023-04-17T10:14:48.274Z,69.98
2023-04-17T10:16:50.584Z,69.60
2023-04-17T10:19:27.708Z,69.96
2023-04-17T10:21:29.295Z,68.40
2023-04-17T10:23:33.554Z,69.00
2023-04-17T10:25:35.377Z,69.22
2023-04-17T10:27:36.775Z,69.45
2023-04-17T10:29:57.583Z,69.31
2023-04-17T10:32:11.198Z,68.30
2023-04-17T10:34:39.584Z,66.23
2023-04-17T10:36:42.463Z,67.79
2023-04-17T10:38:43.999Z,67.81
2023-04-17T10:40:45.974Z,67.59
2023-04-17T10:43:14.857Z,67.55
2023-04-17T10:45:19.478Z,67.40
2023-04-17T10:47:22.470Z,67.21
2023-04-17T10:49:24.683Z,65.94
2023-04-17T10:51:29.141Z,57.65
2023-04-17T10:53:37.527Z,64.98
2023-04-17T10:55:49.327Z,65.71
2023-04-17T10:57:54.670Z,64.18
2023-04-17T11:00:12.346Z,63.75
2023-04-17T11:02:14.901Z,65.84
2023-04-17T11:04:24.645Z,65.79
2023-04-17T11:06:33.564Z,61.46
2023-04-17T11:08:35.270Z,56.34
2023-04-17T11:10:37.445Z,54.86
2023-04-17T11:12:39.331Z,61.00
2023-04-17T11:14:43.088Z,62.76
2023-04-17T11:16:47.633Z,62.54
2023-04-17T11:18:49.203Z,62.11
2023-04-17T11:20:52.335Z,58.29
2023-04-17T11:22:53.889Z,61.43
2023-04-17T11:24:55.425Z,60.62
2023-04-17T11:26:59.712Z,61.16
2023-04-17T11:29:01.908Z,59.41
2023-04-17T11:31:04.436Z,61.69
2023-04-17T11:33:07.946Z,59.21
2023-04-17T11:35:10.010Z,56.23
2023-04-17T11:37:14.570Z,60.97
2023-04-17T11:39:16.259Z,60.08
2023-04-17T11:41:17.816Z,60.94
2023-04-17T11:43:21.103Z,62.63
2023-04-17T11:45:22.710Z,63.34
2023-04-17T11:47:24.248Z,58.68
2023-04-17T11:49:29.355Z,61.00
2023-04-17T11:51:31.785Z,61.08
2023-04-17T11:53:35.286Z,58.88
2023-04-17T11:55:36.747Z,59.88
2023-04-17T11:57:44.076Z,58.55
2023-04-17T11:59:46.077Z,53.80
2023-04-17T12:01:53.505Z,57.39
2023-04-17T12:03:59.345Z,58.76
2023-04-17T12:06:03.177Z,57.87
2023-04-17T12:08:07.383Z,59.14
2023-04-17T12:10:09.170Z,58.41
2023-04-17T12:12:11.017Z,57.37
2023-04-17T12:14:12.861Z,58.11
2023-04-17T12:16:14.468Z,59.42
2023-04-17T12:18:15.993Z,58.14
2023-04-17T12:20:17.469Z,59.13
2023-04-17T12:22:19.378Z,60.85
2023-04-17T12:24:22.891Z,60.22
2023-04-17T12:26:25.683Z,61.50
2023-04-17T12:28:27.249Z,61.49
2023-04-17T12:30:29.392Z,60.28
2023-04-17T12:32:31.158Z,60.24
2023-04-17T12:34:32.731Z,58.98
2023-04-17T12:36:34.533Z,59.15
2023-04-17T12:38:36.148Z,57.67
2023-04-17T12:40:42.962Z,57.83
2023-04-17T12:42:49.066Z,59.92
2023-04-17T12:44:51.312Z,61.24
2023-04-17T12:46:52.793Z,63.02
2023-04-17T12:48:58.442Z,63.08
2023-04-17T12:50:59.966Z,63.92
2023-04-17T12:53:01.440Z,63.20
2023-04-17T12:55:04.520Z,64.76
2023-04-17T12:57:06.165Z,64.46
2023-04-17T12:59:07.879Z,63.60
2023-04-17T13:01:09.511Z,62.13
2023-04-17T13:03:11.905Z,60.26
2023-04-17T13:05:13.762Z,60.77
2023-04-17T13:07:15.357Z,60.04
2023-04-17T13:09:17.961Z,60.44
2023-04-17T13:11:19.495Z,59.66
2023-04-17T13:13:20.933Z,60.91
2023-04-17T13:15:22.529Z,60.86
2023-04-17T13:17:25.142Z,60.88
2023-04-17T13:19:26.627Z,61.27
2023-04-17T13:21:28.201Z,60.13
2023-04-17T13:23:29.692Z,60.30
2023-04-17T13:25:31.851Z,60.50
2023-04-17T13:27:33.371Z,59.92
2023-04-17T13:29:34.895Z,60.40
2023-04-17T13:31:37.053Z,58.87
2023-04-17T13:33:40.282Z,61.08
2023-04-17T13:35:42.168Z,60.93
2023-04-17T13:37:43.646Z,61.47
2023-04-17T13:39:45.118Z,61.65
2023-04-17T13:41:46.951Z,61.41
2023-04-17T13:43:48.425Z,61.48
2023-04-17T13:45:52.267Z,62.00
2023-04-17T13:47:55.054Z,60.46
2023-04-17T13:49:56.559Z,62.28
2023-04-17T13:51:58.091Z,62.07
2023-04-17T13:53:59.676Z,62.51
2023-04-17T13:56:01.259Z,62.14
2023-04-17T13:58:02.965Z,61.20
2023-04-17T14:00:04.878Z,62.24
2023-04-17T14:02:06.944Z,62.34
2023-04-17T14:04:09.502Z,62.33
2023-04-17T14:06:11.570Z,61.48
2023-04-17T14:08:13.047Z,61.53
2023-04-17T14:10:14.563Z,60.64
2023-04-17T14:12:20.605Z,61.89
2023-04-17T14:14:22.465Z,61.17
2023-04-17T14:16:24.086Z,60.64
2023-04-17T14:18:25.619Z,60.98
2023-04-17T14:20:27.165Z,61.60
2023-04-17T14:22:28.640Z,62.57
2023-04-17T14:24:30.229Z,63.21
2023-04-17T14:26:31.792Z,63.32
2023-04-17T14:28:33.399Z,63.75
2023-04-17T14:30:34.908Z,63.28
2023-04-17T14:32:38.410Z,63.27
2023-04-17T14:34:40.074Z,62.69
2023-04-17T14:36:43.027Z,61.98
2023-04-17T14:38:48.910Z,62.50
2023-04-17T14:40:50.813Z,61.50
2023-04-17T14:42:54.661Z,61.78
2023-04-17T14:44:56.407Z,62.03
2023-04-17T14:46:58.174Z,61.14
2023-04-17T14:48:59.797Z,61.48
2023-04-17T14:51:01.608Z,61.90
2023-04-17T14:53:04.553Z,60.78
2023-04-17T14:55:06.264Z,60.67
2023-04-17T14:57:08.466Z,61.29
2023-04-17T14:59:10.031Z,61.67
2023-04-17T15:01:11.619Z,61.20
2023-04-17T15:03:13.244Z,61.54
2023-04-17T15:05:18.801Z,61.26
2023-04-17T15:07:20.742Z,61.07
2023-04-17T15:09:22.207Z,61.46
2023-04-17T15:11:23.780Z,62.83
2023-04-17T15:13:25.347Z,63.60
2023-04-17T15:15:28.543Z,63.29
2023-04-17T15:17:30.227Z,63.42
2023-04-17T15:19:31.731Z,62.84
2023-04-17T15:21:33.254Z,62.11
2023-04-17T15:23:35.487Z,62.82
2023-04-17T15:25:37.190Z,62.55
2023-04-17T15:27:38.644Z,61.90
2023-04-17T15:29:40.347Z,62.88
2023-04-17T15:31:42.061Z,63.08
2023-04-17T15:33:45.598Z,61.48
2023-04-17T15:35:47.300Z,62.95
2023-04-17T15:37:48.857Z,62.89
2023-04-17T15:39:50.629Z,63.06
2023-04-17T15:41:52.260Z,64.72
2023-04-17T15:43:53.723Z,64.61
2023-04-17T15:45:55.648Z,65.63
2023-04-17T15:47:58.130Z,64.27
2023-04-17T15:49:59.721Z,63.29
2023-04-17T15:52:01.309Z,63.35
2023-04-17T15:54:03.165Z,63.15
2023-04-17T15:56:06.815Z,63.25
2023-04-17T15:58:08.442Z,63.39
2023-04-17T16:00:10.689Z,63.23
2023-04-17T16:02:13.626Z,63.40
2023-04-17T16:04:15.321Z,63.34
2023-04-17T16:06:16.902Z,62.28
2023-04-17T16:08:18.356Z,62.90
2023-04-17T16:10:19.984Z,63.33
2023-04-17T16:12:21.481Z,62.33
2023-04-17T16:14:22.962Z,62.72
2023-04-17T16:16:24.439Z,62.99
2023-04-17T16:18:26.001Z,63.64
2023-04-17T16:20:27.449Z,64.31
2023-04-17T16:22:28.949Z,63.56
2023-04-17T16:24:30.462Z,64.21
2023-04-17T16:26:32.049Z,64.68
2023-04-17T16:28:34.413Z,64.23
2023-04-17T16:30:36.004Z,64.25
2023-04-17T16:32:37.601Z,64.18
2023-04-17T16:34:39.181Z,63.91
2023-04-17T16:36:45.189Z,64.63
2023-04-17T16:38:47.204Z,64.90
2023-04-17T16:40:48.692Z,65.37
2023-04-17T16:42:50.441Z,65.72
2023-04-17T16:44:52.001Z,65.91
2023-04-17T16:48:59.674Z,65.14
2023-04-17T16:51:07.439Z,65.43
2023-04-17T16:53:09.291Z,64.85
2023-04-17T16:55:10.856Z,65.30
2023-04-17T16:57:12.350Z,65.81
2023-04-17T16:59:14.286Z,65.47
2023-04-17T17:01:15.995Z,65.52
2023-04-17T17:03:18.316Z,66.51
2023-04-17T17:05:20.003Z,66.83
2023-04-17T17:07:21.455Z,67.06
2023-04-17T17:09:22.978Z,66.77
2023-04-17T17:11:24.521Z,67.52
2023-04-17T17:13:26.368Z,67.34
2023-04-17T17:15:27.890Z,67.85
2023-04-17T17:17:30.035Z,67.56
2023-04-17T17:19:31.629Z,67.58
2023-04-17T17:21:33.191Z,68.19
2023-04-17T17:23:34.881Z,67.92
2023-04-17T17:25:36.362Z,68.17
2023-04-17T17:27:37.884Z,68.61
2023-04-17T17:29:39.691Z,68.75
2023-04-17T17:31:41.244Z,68.90
2023-04-17T17:33:42.776Z,70.00
2023-04-17T17:35:44.249Z,69.21
2023-04-17T17:37:45.799Z,69.92
2023-04-17T17:39:47.255Z,69.46
2023-04-17T17:41:48.761Z,69.75
2023-04-17T17:43:50.362Z,70.53
2023-04-17T17:45:52.387Z,70.21
2023-04-17T17:47:54.029Z,70.53
2023-04-17T17:49:55.719Z,71.46
2023-04-17T17:51:57.166Z,71.45
2023-04-17T17:53:58.639Z,71.53
2023-04-17T17:56:00.122Z,71.61
2023-04-17T17:58:01.645Z,71.47
2023-04-17T18:00:03.513Z,71.49
2023-04-17T18:02:05.157Z,71.50
2023-04-17T18:04:06.952Z,71.41
2023-04-17T18:06:09.211Z,71.61
2023-04-17T18:08:10.760Z,71.37
2023-04-17T18:10:12.359Z,72.12
2023-04-17T18:12:13.805Z,71.77
2023-04-17T18:14:15.274Z,71.54
2023-04-17T18:16:17.067Z,72.22
2023-04-17T18:18:18.557Z,72.20
2023-04-17T18:20:20.143Z,71.97
2023-04-17T18:22:21.628Z,71.71
2023-04-17T18:24:23.162Z,71.88
2023-04-17T18:26:24.665Z,71.67
2023-04-17T18:28:27.015Z,71.81
2023-04-17T18:30:28.708Z,71.92
2023-04-17T18:32:31.587Z,72.24
2023-04-17T18:34:33.091Z,71.90
2023-04-17T18:36:34.599Z,72.28
2023-04-17T18:38:36.111Z,72.20
2023-04-17T18:40:37.853Z,72.30
2023-04-17T18:42:39.302Z,72.43
2023-04-17T18:44:41.806Z,72.62
2023-04-17T18:46:43.278Z,72.52
2023-04-17T18:48:44.852Z,72.78
2023-04-17T18:50:46.333Z,72.73
2023-04-17T18:52:50.452Z,72.84
2023-04-17T18:54:52.769Z,72.73
2023-04-17T18:56:54.302Z,72.47
2023-04-17T18:58:55.765Z,72.74
2023-04-17T19:00:57.278Z,73.00
2023-04-17T19:02:58.777Z,72.87
2023-04-17T19:05:00.494Z,73.04
2023-04-17T19:07:02.766Z,72.89
2023-04-17T19:09:04.310Z,72.97
2023-04-17T19:19:05.679Z,73.63
2023-04-17T19:21:07.328Z,73.44
2023-04-17T19:23:10.150Z,73.80
2023-04-17T19:25:11.791Z,73.69
2023-04-17T19:27:13.562Z,74.11
2023-04-17T19:29:17.122Z,73.56
2023-04-17T19:31:18.662Z,73.76
2023-04-17T19:33:20.450Z,73.84
2023-04-17T19:35:21.956Z,73.34
2023-04-17T19:37:23.419Z,73.08
2023-04-17T19:39:27.309Z,73.32
2023-04-17T19:41:28.860Z,73.87
2023-04-17T19:43:30.314Z,74.27
2023-04-17T19:45:33.282Z,74.08
2023-04-17T19:47:34.861Z,73.16
2023-04-17T19:49:36.645Z,73.97
2023-04-17T19:51:38.724Z,73.69
2023-04-17T19:53:42.336Z,73.56
2023-04-17T19:55:43.798Z,74.15
2023-04-17T19:57:45.382Z,73.72
2023-04-17T19:59:46.868Z,73.30
2023-04-17T20:01:48.802Z,73.96
2023-04-17T20:03:51.372Z,73.71
2023-04-17T20:05:53.914Z,73.81
2023-04-17T20:07:55.459Z,73.97
2023-04-17T20:09:56.987Z,73.75
2023-04-17T20:11:58.531Z,74.18
2023-04-17T20:14:00.030Z,74.24
2023-04-17T20:16:01.721Z,73.80
2023-04-17T20:18:05.469Z,74.43
2023-04-17T20:20:07.551Z,74.08
2023-04-17T20:22:09.017Z,74.08
2023-04-17T20:24:10.629Z,74.86
2023-04-17T20:26:12.087Z,75.00
2023-04-17T20:28:13.574Z,74.07
2023-04-17T20:30:15.436Z,74.79
2023-04-17T20:32:17.881Z,74.51
2023-04-17T20:34:19.465Z,74.71
2023-04-17T20:36:21.081Z,74.90
2023-04-17T20:38:22.680Z,74.26
2023-04-17T20:40:24.207Z,75.00
2023-04-17T20:42:25.728Z,74.93
2023-04-17T20:44:27.181Z,74.97
2023-04-17T20:46:29.393Z,75.06
2023-04-17T20:48:31.017Z,74.60
2023-04-17T20:50:32.534Z,74.58
2023-04-17T20:52:34.234Z,74.75
2023-04-17T20:54:35.858Z,74.41
2023-04-17T20:56:37.325Z,75.20
2023-04-17T20:58:38.827Z,74.63
2023-04-17T21:00:53.974Z,74.92
2023-04-17T21:03:02.031Z,75.42
2023-04-17T21:05:04.053Z,74.56
2023-04-17T21:07:05.565Z,74.55
2023-04-17T21:09:08.655Z,75.71
2023-04-17T21:11:10.192Z,75.41
2023-04-17T21:13:11.639Z,75.17
2023-04-17T21:15:13.284Z,74.68
2023-04-17T21:17:14.859Z,75.15
2023-04-17T21:19:16.373Z,75.45
2023-04-17T21:21:17.891Z,75.29
2023-04-17T21:23:19.422Z,75.35
2023-04-17T21:25:21.497Z,75.08
2023-04-17T21:27:23.107Z,75.88
2023-04-17T21:29:28.440Z,75.07
2023-04-17T21:31:31.300Z,75.07
2023-04-17T21:33:32.761Z,75.33
2023-04-17T21:35:35.532Z,75.79
2023-04-17T21:37:37.079Z,75.63
2023-04-17T21:39:38.512Z,75.87
2023-04-17T21:41:39.971Z,75.49
2023-04-17T21:43:41.403Z,75.36
2023-04-17T21:45:42.896Z,75.64
2023-04-17T21:47:44.458Z,75.06
2023-04-17T21:49:47.406Z,75.55
2023-04-17T21:51:48.892Z,75.53
2023-04-17T21:53:50.424Z,75.03
2023-04-17T21:55:51.884Z,75.32
2023-04-17T21:57:53.446Z,74.79
2023-04-17T21:59:54.905Z,75.04
2023-04-17T22:01:56.597Z,74.67
2023-04-17T22:03:58.104Z,74.54
2023-04-17T22:06:00.129Z,75.12
2023-04-17T22:08:01.687Z,74.79
2023-04-17T22:10:03.326Z,74.65
2023-04-17T22:12:12.239Z,74.20
2023-04-17T22:14:14.252Z,74.76
2023-04-17T22:16:16.005Z,74.93
2023-04-17T22:18:17.643Z,74.78
2023-04-17T22:20:19.892Z,74.97
2023-04-17T22:22:21.682Z,74.49
2023-04-17T22:24:23.139Z,74.87
2023-04-17T22:26:26.813Z,74.49
2023-04-17T22:28:31.357Z,75.03
2023-04-17T22:30:32.880Z,74.98
2023-04-17T22:32:34.483Z,75.46
2023-04-17T22:34:36.019Z,74.91
2023-04-17T22:36:37.503Z,74.96
2023-04-17T22:38:38.943Z,74.78
2023-04-17T22:40:41.332Z,74.75
2023-04-17T22:42:42.997Z,74.52
2023-04-17T22:44:44.563Z,75.12
2023-04-17T22:46:46.109Z,75.06
2023-04-17T22:48:49.553Z,74.44
2023-04-17T22:50:51.040Z,74.37
2023-04-17T22:52:55.544Z,74.69
2023-04-17T22:54:57.212Z,74.66
2023-04-17T22:56:58.911Z,74.45
2023-04-17T22:59:00.428Z,74.07
2023-04-17T23:01:01.929Z,74.30
2023-04-17T23:03:03.625Z,74.14
2023-04-17T23:05:06.353Z,73.99
2023-04-17T23:07:07.962Z,74.36
2023-04-17T23:09:09.430Z,74.72
2023-04-17T23:11:11.021Z,74.83
2023-04-17T23:13:12.594Z,74.85
2023-04-17T23:15:14.361Z,75.12
2023-04-17T23:17:15.828Z,74.97
2023-04-17T23:19:18.337Z,74.75
2023-04-17T23:21:19.964Z,75.10
2023-04-17T23:23:21.574Z,74.80
2023-04-17T23:25:23.060Z,74.72
2023-04-17T23:27:24.602Z,74.64
2023-04-17T23:29:26.145Z,75.21
2023-04-17T23:31:27.762Z,74.43
2023-04-17T23:33:29.299Z,74.75
2023-04-17T23:35:30.811Z,74.78
2023-04-17T23:37:32.445Z,74.77
2023-04-17T23:39:34.709Z,74.82
2023-04-17T23:41:36.414Z,74.52
2023-04-17T23:43:37.885Z,74.42
2023-04-17T23:45:39.474Z,74.45
2023-04-17T23:47:41.023Z,74.55
2023-04-17T23:49:42.484Z,74.54
2023-04-17T23:51:43.983Z,74.68
2023-04-17T23:53:45.503Z,74.82
2023-04-17T23:55:47.052Z,74.38
2023-04-17T23:57:48.520Z,74.18
2023-04-17T23:59:49.967Z,74.90
